createdAt,value
2022-10-17T00:01:10.793Z,4.96
2022-10-17T00:03:39.808Z,4.94
2022-10-17T00:06:10.925Z,4.92
2022-10-17T00:08:41.067Z,4.90
2022-10-17T00:11:15.574Z,4.90
2022-10-17T00:13:44.075Z,4.89
2022-10-17T00:16:12.397Z,4.87
2022-10-17T00:18:40.982Z,4.86
2022-10-17T00:21:16.094Z,4.84
2022-10-17T00:23:44.137Z,4.81
2022-10-17T00:26:12.464Z,4.79
2022-10-17T00:28:40.556Z,4.76
2022-10-17T00:31:08.592Z,4.74
2022-10-17T00:33:36.922Z,4.72
2022-10-17T00:36:15.336Z,4.69
2022-10-17T00:38:45.868Z,4.65
2022-10-17T00:41:16.909Z,4.61
2022-10-17T00:43:56.617Z,4.58
2022-10-17T00:46:29.100Z,4.54
2022-10-17T00:48:59.215Z,4.50
2022-10-17T00:51:41.745Z,4.47
2022-10-17T00:54:11.754Z,4.43
2022-10-17T00:56:40.602Z,4.39
2022-10-17T00:59:11.096Z,4.36
2022-10-17T01:01:47.249Z,4.34
2022-10-17T01:04:15.851Z,4.32
2022-10-17T01:06:43.857Z,4.29
2022-10-17T01:09:11.871Z,4.26
2022-10-17T01:11:45.232Z,4.23
2022-10-17T01:14:43.862Z,4.19
2022-10-17T01:17:23.652Z,4.16
2022-10-17T01:20:12.971Z,4.12
2022-10-17T01:22:49.497Z,4.09
2022-10-17T01:25:36.529Z,4.07
2022-10-17T01:28:39.467Z,4.04
2022-10-17T01:31:16.637Z,4.00
2022-10-17T01:33:51.314Z,3.97
2022-10-17T01:36:50.198Z,3.94
2022-10-17T01:39:28.101Z,3.90
2022-10-17T01:42:10.340Z,3.86
2022-10-17T01:44:47.130Z,3.82
2022-10-17T01:47:20.189Z,3.79
2022-10-17T01:49:52.726Z,3.76
2022-10-17T01:52:23.963Z,3.74
2022-10-17T01:54:56.999Z,3.74
2022-10-17T01:57:32.451Z,3.73
2022-10-17T02:00:02.811Z,3.72
2022-10-17T02:02:43.956Z,3.70
2022-10-17T02:05:12.706Z,3.66
2022-10-17T02:07:42.042Z,3.65
2022-10-17T02:10:25.938Z,3.63
2022-10-17T02:13:07.628Z,3.62
2022-10-17T02:16:40.279Z,3.61
2022-10-17T02:19:29.272Z,3.59
2022-10-17T02:22:31.490Z,3.57
2022-10-17T02:25:29.675Z,3.53
2022-10-17T02:28:13.625Z,3.50
2022-10-17T02:30:50.052Z,3.46
2022-10-17T02:33:31.011Z,3.44
2022-10-17T02:36:09.027Z,3.45
2022-10-17T02:38:39.353Z,3.45
2022-10-17T02:41:11.588Z,3.45
2022-10-17T02:43:40.093Z,3.45
2022-10-17T02:46:08.390Z,3.44
2022-10-17T02:48:44.309Z,3.44
2022-10-17T02:51:30.876Z,3.43
2022-10-17T02:54:17.088Z,3.40
2022-10-17T02:56:55.197Z,3.37
2022-10-17T02:59:26.740Z,3.33
2022-10-17T03:01:55.281Z,3.30
2022-10-17T03:04:23.559Z,3.28
2022-10-17T03:06:51.545Z,3.27
2022-10-17T03:09:19.803Z,3.26
2022-10-17T03:11:47.831Z,3.23
2022-10-17T03:14:15.988Z,3.21
2022-10-17T03:16:44.002Z,3.17
2022-10-17T03:19:11.879Z,3.15
2022-10-17T03:21:40.257Z,3.15
2022-10-17T03:24:08.701Z,3.13
2022-10-17T03:26:37.077Z,3.12
2022-10-17T03:29:05.941Z,3.10
2022-10-17T03:31:34.602Z,3.09
2022-10-17T03:34:03.662Z,3.07
2022-10-17T03:36:31.612Z,3.05
2022-10-17T03:38:59.564Z,3.03
2022-10-17T03:41:28.598Z,3.00
2022-10-17T03:43:56.579Z,2.97
2022-10-17T03:46:24.882Z,2.95
2022-10-17T03:48:53.636Z,2.92
2022-10-17T03:51:22.238Z,2.89
2022-10-17T03:53:54.113Z,2.86
2022-10-17T03:56:25.467Z,2.85
2022-10-17T03:59:00.552Z,2.85
2022-10-17T04:01:29.229Z,2.85
2022-10-17T04:03:57.946Z,2.84
2022-10-17T04:06:28.206Z,2.82
2022-10-17T04:08:56.279Z,2.78
2022-10-17T04:11:40.058Z,2.75
2022-10-17T04:14:10.029Z,2.73
2022-10-17T04:16:39.201Z,2.70
2022-10-17T04:19:13.913Z,2.67
2022-10-17T04:21:44.989Z,2.64
2022-10-17T04:24:13.122Z,2.62
2022-10-17T04:26:59.658Z,2.59
2022-10-17T04:29:29.960Z,2.55
2022-10-17T04:32:07.066Z,2.52
2022-10-17T04:34:40.968Z,2.48
2022-10-17T04:37:09.059Z,2.46
2022-10-17T04:39:37.868Z,2.42
2022-10-17T04:42:06.473Z,2.41
2022-10-17T04:44:35.811Z,2.39
2022-10-17T04:47:03.920Z,2.38
2022-10-17T04:49:32.318Z,2.37
2022-10-17T04:52:07.587Z,2.36
2022-10-17T04:54:46.326Z,2.34
2022-10-17T04:57:15.183Z,2.32
2022-10-17T04:59:48.013Z,2.31
2022-10-17T05:02:30.773Z,2.30
2022-10-17T05:04:59.928Z,2.30
2022-10-17T05:07:28.105Z,2.30
2022-10-17T05:10:05.725Z,2.32
2022-10-17T05:12:34.101Z,2.35
2022-10-17T05:15:02.176Z,2.39
2022-10-17T05:17:30.406Z,2.44
2022-10-17T05:19:59.250Z,2.52
2022-10-17T05:22:27.614Z,2.61
2022-10-17T05:24:57.081Z,2.70
2022-10-17T05:27:25.094Z,2.80
2022-10-17T05:29:53.161Z,2.92
2022-10-17T05:32:25.968Z,3.06
2022-10-17T05:34:54.293Z,3.25
2022-10-17T05:37:22.804Z,3.46
2022-10-17T05:39:52.558Z,3.62
2022-10-17T05:42:20.781Z,3.78
2022-10-17T05:44:49.188Z,3.98
2022-10-17T05:47:19.027Z,4.18
2022-10-17T05:49:52.116Z,4.39
2022-10-17T05:52:23.343Z,4.64
2022-10-17T05:55:12.709Z,4.90
2022-10-17T05:57:40.913Z,5.15
2022-10-17T06:00:13.639Z,5.40
2022-10-17T06:02:46.751Z,5.69
2022-10-17T06:05:16.939Z,5.96
2022-10-17T06:07:45.535Z,6.16
2022-10-17T06:10:16.647Z,6.34
2022-10-17T06:12:45.686Z,6.50
2022-10-17T06:15:13.738Z,6.63
2022-10-17T06:17:45.148Z,6.77
2022-10-17T06:20:13.098Z,6.95
2022-10-17T06:22:41.216Z,7.11
2022-10-17T06:25:15.101Z,7.29
2022-10-17T06:28:00.273Z,7.48
2022-10-17T06:30:30.761Z,7.71
2022-10-17T06:32:58.856Z,7.92
2022-10-17T06:35:26.907Z,8.16
2022-10-17T06:37:54.996Z,8.38
2022-10-17T06:40:23.726Z,8.58
2022-10-17T06:42:51.959Z,8.79
2022-10-17T06:45:40.201Z,8.98
2022-10-17T06:48:22.049Z,9.20
2022-10-17T06:51:12.212Z,9.50
2022-10-17T06:53:53.629Z,9.78
2022-10-17T06:56:45.721Z,10.05
2022-10-17T06:59:16.503Z,10.32
2022-10-17T07:01:52.655Z,10.64
2022-10-17T07:04:20.660Z,10.92
2022-10-17T07:06:48.663Z,11.18
2022-10-17T07:09:19.719Z,11.41
2022-10-17T07:11:47.951Z,11.67
2022-10-17T07:14:19.288Z,11.85
2022-10-17T07:16:50.109Z,12.08
2022-10-17T07:19:24.708Z,12.29
2022-10-17T07:21:54.110Z,12.47
2022-10-17T07:24:24.667Z,12.67
2022-10-17T07:27:07.105Z,12.87
2022-10-17T07:29:35.176Z,13.09
2022-10-17T07:32:09.829Z,13.29
2022-10-17T07:34:38.176Z,13.46
2022-10-17T07:37:07.504Z,13.64
2022-10-17T07:39:37.688Z,13.81
2022-10-17T07:42:07.545Z,13.97
2022-10-17T07:44:35.981Z,14.13
2022-10-17T07:47:04.629Z,14.25
2022-10-17T07:49:32.654Z,14.34
2022-10-17T07:52:00.603Z,14.42
2022-10-17T07:54:28.697Z,14.41
2022-10-17T07:56:56.841Z,14.38
2022-10-17T07:59:24.902Z,14.38
2022-10-17T08:01:56.063Z,14.46
2022-10-17T08:04:24.408Z,14.54
2022-10-17T08:06:56.521Z,14.59
2022-10-17T08:09:33.625Z,14.62
2022-10-17T08:12:01.720Z,14.61
2022-10-17T08:14:29.628Z,14.54
2022-10-17T08:16:57.504Z,14.53
2022-10-17T08:19:25.552Z,14.53
2022-10-17T08:21:54.538Z,14.55
2022-10-17T08:24:22.627Z,14.67
2022-10-17T08:26:51.855Z,14.76
2022-10-17T08:29:20.297Z,14.84
2022-10-17T08:31:49.924Z,14.90
2022-10-17T08:34:19.184Z,14.85
2022-10-17T08:36:47.105Z,14.88
2022-10-17T08:39:15.208Z,14.95
2022-10-17T08:41:58.480Z,15.03
2022-10-17T08:44:48.239Z,15.11
2022-10-17T08:47:27.509Z,15.19
2022-10-17T08:50:00.789Z,15.32
2022-10-17T08:52:38.183Z,15.38
2022-10-17T08:55:16.676Z,15.48
2022-10-17T08:57:44.844Z,15.55
2022-10-17T09:00:21.648Z,15.63
2022-10-17T09:03:08.056Z,15.78
2022-10-17T09:05:53.752Z,15.90
2022-10-17T09:08:33.550Z,15.96
2022-10-17T09:11:29.805Z,16.05
2022-10-17T09:14:33.314Z,16.23
2022-10-17T09:17:23.067Z,16.36
2022-10-17T09:20:20.658Z,16.51
2022-10-17T09:22:51.287Z,16.70
2022-10-17T09:25:22.012Z,16.87
2022-10-17T09:27:54.656Z,16.96
2022-10-17T09:30:43.621Z,17.07
2022-10-17T09:33:23.256Z,17.20
2022-10-17T09:36:04.532Z,17.35
2022-10-17T09:38:58.378Z,17.46
2022-10-17T09:41:49.509Z,17.57
2022-10-17T09:44:35.599Z,17.65
2022-10-17T09:47:35.210Z,17.74
2022-10-17T09:50:03.411Z,17.83
2022-10-17T09:52:47.851Z,18.01
2022-10-17T09:55:34.650Z,18.24
2022-10-17T09:58:05.742Z,18.47
2022-10-17T10:00:43.986Z,18.70
2022-10-17T10:03:26.546Z,18.91
2022-10-17T10:05:59.632Z,19.11
2022-10-17T10:08:36.605Z,19.33
2022-10-17T10:11:09.624Z,19.60
2022-10-17T10:13:43.373Z,19.85
2022-10-17T10:16:24.515Z,20.04
2022-10-17T10:18:52.909Z,20.32
2022-10-17T10:21:23.861Z,20.63
2022-10-17T10:24:10.408Z,20.85
2022-10-17T10:26:46.047Z,21.09
2022-10-17T10:29:32.922Z,21.21
2022-10-17T10:32:22.895Z,21.37
2022-10-17T10:34:54.147Z,21.62
2022-10-17T10:37:36.805Z,21.84
2022-10-17T10:40:15.689Z,21.99
2022-10-17T10:42:51.571Z,22.06
2022-10-17T10:45:46.431Z,22.11
2022-10-17T10:48:37.192Z,22.19
2022-10-17T10:51:19.801Z,22.40
2022-10-17T10:54:04.189Z,22.56
2022-10-17T10:56:43.913Z,22.74
2022-10-17T10:59:26.227Z,22.87
2022-10-17T11:01:56.692Z,23.03
2022-10-17T11:04:37.648Z,23.16
2022-10-17T11:07:28.908Z,23.16
2022-10-17T11:10:00.283Z,23.26
2022-10-17T11:12:35.380Z,23.45
2022-10-17T11:15:09.625Z,23.67
2022-10-17T11:17:51.212Z,23.80
2022-10-17T11:20:34.335Z,23.88
2022-10-17T11:23:29.005Z,23.97
2022-10-17T11:26:01.639Z,24.09
2022-10-17T11:28:31.000Z,24.22
2022-10-17T11:31:12.820Z,24.37
2022-10-17T11:33:46.958Z,24.50
2022-10-17T11:36:21.574Z,24.53
2022-10-17T11:39:01.841Z,24.64
2022-10-17T11:41:40.222Z,24.79
2022-10-17T11:44:23.574Z,24.91
2022-10-17T11:46:57.738Z,25.01
2022-10-17T11:49:36.857Z,25.08
2022-10-17T11:52:26.999Z,25.19
2022-10-17T11:55:23.219Z,25.33
2022-10-17T11:58:10.124Z,25.47
2022-10-17T12:01:13.034Z,25.55
2022-10-17T12:04:18.812Z,25.70
2022-10-17T12:07:17.900Z,25.73
2022-10-17T12:09:59.596Z,25.70
2022-10-17T12:12:31.260Z,25.81
2022-10-17T12:15:26.307Z,25.86
2022-10-17T12:17:59.312Z,25.89
2022-10-17T12:20:28.819Z,25.97
2022-10-17T12:23:12.059Z,26.05
2022-10-17T12:25:52.103Z,26.20
2022-10-17T12:28:34.495Z,26.37
2022-10-17T12:31:19.069Z,26.49
2022-10-17T12:33:49.972Z,26.54
2022-10-17T12:36:27.007Z,26.62
2022-10-17T12:39:04.348Z,26.72
2022-10-17T12:41:38.140Z,26.88
2022-10-17T12:44:15.516Z,27.03
2022-10-17T12:46:49.504Z,27.08
2022-10-17T12:49:38.397Z,27.16
2022-10-17T12:52:23.787Z,27.26
2022-10-17T12:55:07.447Z,27.25
2022-10-17T12:58:05.126Z,27.22
2022-10-17T13:00:59.513Z,27.24
2022-10-17T13:03:35.297Z,27.25
2022-10-17T13:06:06.908Z,27.25
2022-10-17T13:08:43.423Z,27.18
2022-10-17T13:11:13.751Z,27.10
2022-10-17T13:13:48.981Z,27.00
2022-10-17T13:16:40.195Z,26.81
2022-10-17T13:19:16.845Z,26.61
2022-10-17T13:22:05.991Z,26.49
2022-10-17T13:24:40.860Z,26.42
2022-10-17T13:27:32.152Z,26.22
2022-10-17T13:30:31.104Z,26.05
2022-10-17T13:33:02.023Z,25.95
2022-10-17T13:35:59.081Z,25.89
2022-10-17T13:38:28.482Z,25.80
2022-10-17T13:41:22.947Z,25.75
2022-10-17T13:43:50.641Z,25.66
2022-10-17T13:46:38.978Z,25.53
2022-10-17T13:49:18.109Z,25.36
2022-10-17T13:51:50.257Z,25.22
2022-10-17T13:54:33.688Z,25.05
2022-10-17T13:57:03.173Z,24.87
2022-10-17T13:59:39.849Z,24.76
2022-10-17T14:02:16.402Z,24.64
2022-10-17T14:05:14.921Z,24.49
2022-10-17T14:08:22.046Z,24.32
2022-10-17T14:10:50.548Z,24.04
2022-10-17T14:13:25.273Z,23.86
2022-10-17T14:15:56.408Z,23.71
2022-10-17T14:18:35.897Z,23.53
2022-10-17T14:24:34.166Z,23.10
2022-10-17T14:27:02.286Z,22.91
2022-10-17T14:29:33.296Z,22.81
2022-10-17T14:32:06.458Z,22.73
2022-10-17T14:34:37.702Z,22.66
2022-10-17T14:37:24.476Z,22.57
2022-10-17T14:39:55.158Z,22.44
2022-10-17T14:42:23.455Z,22.31
2022-10-17T14:44:54.467Z,22.18
2022-10-17T14:47:44.014Z,22.04
2022-10-17T14:50:12.928Z,21.88
2022-10-17T14:52:43.235Z,21.69
2022-10-17T14:55:24.307Z,21.49
2022-10-17T14:57:52.661Z,21.27
2022-10-17T15:00:22.704Z,21.08
2022-10-17T15:02:52.688Z,20.91
2022-10-17T15:05:23.189Z,20.74
2022-10-17T15:07:51.928Z,20.58
2022-10-17T15:10:33.368Z,20.42
2022-10-17T15:13:27.237Z,20.24
2022-10-17T15:15:52.473Z,20.07
2022-10-17T15:18:20.717Z,19.90
2022-10-17T15:20:55.284Z,19.73
2022-10-17T15:23:32.779Z,19.56
2022-10-17T15:26:01.863Z,19.39
2022-10-17T15:28:29.893Z,19.22
2022-10-17T15:30:57.980Z,19.05
2022-10-17T15:33:25.999Z,18.89
2022-10-17T15:35:54.110Z,18.72
2022-10-17T15:38:22.154Z,18.54
2022-10-17T15:40:52.029Z,18.38
2022-10-17T15:43:20.227Z,18.18
2022-10-17T15:45:48.757Z,17.97
2022-10-17T15:48:30.279Z,17.83
2022-10-17T15:50:58.708Z,17.67
2022-10-17T15:53:27.199Z,17.54
2022-10-17T15:55:57.654Z,17.41
2022-10-17T15:58:28.563Z,17.25
2022-10-17T16:00:56.800Z,17.09
2022-10-17T16:03:24.891Z,16.96
2022-10-17T16:05:52.882Z,16.80
2022-10-17T16:08:20.916Z,16.60
2022-10-17T16:10:49.538Z,16.36
2022-10-17T16:13:20.963Z,16.10
2022-10-17T16:15:49.356Z,15.84
2022-10-17T16:18:17.454Z,15.56
2022-10-17T16:20:45.377Z,15.33
2022-10-17T16:23:14.628Z,15.19
2022-10-17T16:25:43.142Z,15.05
2022-10-17T16:28:12.155Z,14.92
2022-10-17T16:30:44.932Z,14.73
2022-10-17T16:33:13.548Z,14.55
2022-10-17T16:35:41.945Z,14.38
2022-10-17T16:38:09.986Z,14.23
2022-10-17T16:40:39.539Z,14.09
2022-10-17T16:43:12.040Z,13.95
2022-10-17T16:45:40.167Z,13.84
2022-10-17T16:48:10.092Z,13.69
2022-10-17T16:50:41.226Z,13.57
2022-10-17T16:53:09.360Z,13.41
2022-10-17T16:55:38.288Z,13.28
2022-10-17T16:58:06.542Z,13.15
2022-10-17T17:00:35.934Z,13.04
2022-10-17T17:03:04.031Z,12.94
2022-10-17T17:05:31.949Z,12.84
2022-10-17T17:08:01.040Z,12.73
2022-10-17T17:10:32.084Z,12.64
2022-10-17T17:13:01.812Z,12.55
2022-10-17T17:15:30.176Z,12.46
2022-10-17T17:18:02.669Z,12.39
2022-10-17T17:20:33.954Z,12.32
2022-10-17T17:23:02.144Z,12.25
2022-10-17T17:25:30.210Z,12.17
2022-10-17T17:27:58.270Z,12.12
2022-10-17T17:30:26.361Z,12.06
2022-10-17T17:32:54.449Z,12.00
2022-10-17T17:35:22.541Z,11.94
2022-10-17T17:37:50.734Z,11.87
2022-10-17T17:40:18.823Z,11.80
2022-10-17T17:42:46.948Z,11.72
2022-10-17T17:45:15.305Z,11.64
2022-10-17T17:47:43.681Z,11.56
2022-10-17T17:50:11.692Z,11.49
2022-10-17T17:52:42.067Z,11.41
2022-10-17T17:55:10.308Z,11.34
2022-10-17T17:57:38.867Z,11.27
2022-10-17T18:00:07.719Z,11.20
2022-10-17T18:02:39.580Z,11.13
2022-10-17T18:05:10.329Z,11.06
2022-10-17T18:07:38.320Z,10.98
2022-10-17T18:10:07.039Z,10.91
2022-10-17T18:12:35.082Z,10.84
2022-10-17T18:15:04.856Z,10.77
2022-10-17T18:17:33.218Z,10.69
2022-10-17T18:20:02.780Z,10.62
2022-10-17T18:22:31.165Z,10.55
2022-10-17T18:24:59.711Z,10.48
2022-10-17T18:27:27.902Z,10.40
2022-10-17T18:29:56.084Z,10.33
2022-10-17T18:32:24.576Z,10.26
2022-10-17T18:34:52.749Z,10.20
2022-10-17T18:37:20.931Z,10.13
2022-10-17T18:39:51.710Z,10.08
2022-10-17T18:42:20.497Z,10.03
2022-10-17T18:44:48.836Z,9.98
2022-10-17T18:47:16.902Z,9.93
2022-10-17T18:49:45.202Z,9.89
2022-10-17T18:52:13.241Z,9.85
2022-10-17T18:54:41.236Z,9.81
2022-10-17T18:57:09.315Z,9.75
2022-10-17T18:59:37.695Z,9.71
2022-10-17T19:02:06.540Z,9.66
2022-10-17T19:04:35.075Z,9.62
2022-10-17T19:07:03.253Z,9.57
2022-10-17T19:09:31.692Z,9.52
2022-10-17T19:12:00.519Z,9.47
2022-10-17T19:14:30.594Z,9.42
2022-10-17T19:16:59.940Z,9.35
2022-10-17T19:19:28.200Z,9.31
2022-10-17T19:21:57.030Z,9.26
2022-10-17T19:24:27.133Z,9.21
2022-10-17T19:26:58.348Z,9.16
2022-10-17T19:29:28.498Z,9.11
2022-10-17T19:31:56.737Z,9.06
2022-10-17T19:34:25.146Z,9.01
2022-10-17T19:36:53.281Z,8.96
2022-10-17T19:39:23.831Z,8.91
2022-10-17T19:41:52.349Z,8.87
2022-10-17T19:44:20.466Z,8.83
2022-10-17T19:46:49.378Z,8.80
2022-10-17T19:49:18.254Z,8.73
2022-10-17T19:51:46.760Z,8.72
2022-10-17T19:54:18.334Z,8.68
2022-10-17T19:56:47.252Z,8.64
2022-10-17T19:59:17.167Z,8.60
2022-10-17T20:01:45.890Z,8.56
2022-10-17T20:04:14.410Z,8.54
2022-10-17T20:06:42.754Z,8.50
2022-10-17T20:09:17.244Z,8.47
2022-10-17T20:11:45.986Z,8.43
2022-10-17T20:14:14.346Z,8.38
2022-10-17T20:16:49.982Z,8.34
2022-10-17T20:19:18.525Z,8.29
2022-10-17T20:21:46.774Z,8.25
2022-10-17T20:24:17.058Z,8.20
2022-10-17T20:26:46.302Z,8.17
2022-10-17T20:29:19.318Z,8.14
2022-10-17T20:31:48.580Z,8.11
2022-10-17T20:34:19.005Z,8.08
2022-10-17T20:36:47.906Z,8.06
2022-10-17T20:39:18.596Z,8.04
2022-10-17T20:41:47.205Z,8.02
2022-10-17T20:44:15.918Z,7.99
2022-10-17T20:47:00.559Z,7.97
2022-10-17T20:49:30.597Z,7.94
2022-10-17T20:52:01.444Z,7.92
2022-10-17T20:54:29.907Z,7.88
2022-10-17T20:57:01.073Z,7.84
2022-10-17T20:59:32.598Z,7.81
2022-10-17T21:02:00.980Z,7.76
2022-10-17T21:04:47.208Z,7.73
2022-10-17T21:07:16.089Z,7.69
2022-10-17T21:09:45.638Z,7.66
2022-10-17T21:12:21.653Z,7.62
2022-10-17T21:15:00.428Z,7.58
2022-10-17T21:17:28.854Z,7.53
2022-10-17T21:19:57.088Z,7.48
2022-10-17T21:22:25.442Z,7.45
2022-10-17T21:24:53.616Z,7.42
2022-10-17T21:27:21.839Z,7.38
2022-10-17T21:29:50.053Z,7.35
2022-10-17T21:32:32.006Z,7.32
2022-10-17T21:35:06.910Z,7.28
2022-10-17T21:37:34.896Z,7.26
2022-10-17T21:40:03.126Z,7.22
2022-10-17T21:42:31.375Z,7.18
2022-10-17T21:44:59.619Z,7.15
2022-10-17T21:47:29.713Z,7.11
2022-10-17T21:49:58.109Z,7.07
2022-10-17T21:52:26.166Z,7.04
2022-10-17T21:54:54.339Z,7.02
2022-10-17T21:57:22.409Z,6.99
2022-10-17T21:59:50.413Z,6.96
2022-10-17T22:02:18.804Z,6.93
2022-10-17T22:04:46.884Z,6.90
2022-10-17T22:07:15.333Z,6.86
2022-10-17T22:09:43.420Z,6.83
2022-10-17T22:12:11.736Z,6.79
2022-10-17T22:14:39.826Z,6.76
2022-10-17T22:17:08.055Z,6.73
2022-10-17T22:19:36.108Z,6.69
2022-10-17T22:22:04.352Z,6.65
2022-10-17T22:24:32.373Z,6.62
2022-10-17T22:27:00.461Z,6.58
2022-10-17T22:29:28.431Z,6.54
2022-10-17T22:31:56.451Z,6.50
2022-10-17T22:34:24.490Z,6.45
2022-10-17T22:36:52.507Z,6.40
2022-10-17T22:39:20.621Z,6.36
2022-10-17T22:41:48.694Z,6.32
2022-10-17T22:44:16.688Z,6.28
2022-10-17T22:46:44.799Z,6.23
2022-10-17T22:49:13.050Z,6.18
2022-10-17T22:51:41.112Z,6.13
2022-10-17T22:54:09.120Z,6.09
2022-10-17T22:56:37.189Z,6.05
2022-10-17T22:59:05.224Z,6.00
2022-10-17T23:01:33.551Z,5.97
2022-10-17T23:04:02.427Z,5.95
2022-10-17T23:06:30.726Z,5.93
2022-10-17T23:08:58.929Z,5.92
2022-10-17T23:11:26.981Z,5.89
2022-10-17T23:13:55.199Z,5.87
2022-10-17T23:16:23.417Z,5.87
2022-10-17T23:18:51.473Z,5.85
2022-10-17T23:21:19.546Z,5.84
2022-10-17T23:23:47.532Z,5.82
2022-10-17T23:26:15.609Z,5.78
2022-10-17T23:28:43.798Z,5.75
2022-10-17T23:31:15.472Z,5.71
2022-10-17T23:33:45.257Z,5.67
2022-10-17T23:36:15.667Z,5.65
2022-10-17T23:38:45.224Z,5.61
2022-10-17T23:41:14.181Z,5.57
2022-10-17T23:43:43.487Z,5.53
2022-10-17T23:46:12.194Z,5.50
2022-10-17T23:48:41.298Z,5.45
2022-10-17T23:51:10.497Z,5.43
2022-10-17T23:53:39.648Z,5.41
2022-10-17T23:56:08.350Z,5.39
2022-10-17T23:58:37.060Z,5.36
